Time;durP1;ratioP1;P1;durP2;ratioP2;P2;SDS_P1;SDS_P2;PMS_P1;PMS_P2;Temp;Humidity;BMP_temperature;BMP_pressure;BME280_temperature;BME280_humidity;BME280_pressure;Samples;Min_cycle;Max_cycle;Signal;HPM_P1;HPM_P2
2022/10/16 00:00:43;;;;;;;16.10;10.18;;;;;;;14.99;84.08;100705.59;1806180;78;25956;-81
2022/10/16 00:03:11;;;;;;;13.03;10.05;;;;;;;15.00;84.13;100704.55;1809828;78;25767;-80
2022/10/16 00:05:43;;;;;;;13.83;10.08;;;;;;;15.00;84.15;100703.19;1807843;77;27626;-80
2022/10/16 00:08:13;;;;;;;14.98;10.90;;;;;;;15.00;84.11;100701.33;1818391;77;25903;-81
2022/10/16 00:10:40;;;;;;;16.07;9.65;;;;;;;15.01;84.12;100702.17;1817773;77;25742;-82
2022/10/16 00:13:08;;;;;;;14.70;10.13;;;;;;;15.02;84.14;100705.99;1810273;78;25795;-84
2022/10/16 00:15:36;;;;;;;17.62;11.00;;;;;;;15.02;84.11;100701.95;1819029;78;26421;-80
2022/10/16 00:18:04;;;;;;;16.67;10.08;;;;;;;15.03;84.04;100704.97;1845745;77;27437;-81
2022/10/16 00:20:36;;;;;;;15.08;10.40;;;;;;;15.04;84.01;100701.21;1815355;77;26301;-81
2022/10/16 00:23:04;;;;;;;16.85;10.13;;;;;;;15.04;83.97;100706.60;1819606;77;26406;-79
2022/10/16 00:25:36;;;;;;;14.38;10.88;;;;;;;15.05;83.94;100706.92;1816484;78;25846;-80
2022/10/16 00:28:02;;;;;;;15.80;11.12;;;;;;;15.06;83.96;100710.43;1801752;78;26106;-79
2022/10/16 00:30:29;;;;;;;15.72;10.88;;;;;;;15.07;83.89;100711.59;1809810;77;27586;-86
2022/10/16 00:32:58;;;;;;;15.93;10.45;;;;;;;15.07;83.79;100710.75;1826093;77;25561;-81
2022/10/16 00:35:24;;;;;;;13.62;10.20;;;;;;;15.08;83.70;100715.09;1812435;78;25683;-81
2022/10/16 00:37:50;;;;;;;19.12;11.53;;;;;;;15.07;83.53;100715.63;1805655;78;26648;-81
2022/10/16 00:40:17;;;;;;;19.37;11.10;;;;;;;15.07;83.50;100714.29;1825068;77;26004;-81
2022/10/16 00:42:43;;;;;;;18.70;11.80;;;;;;;15.07;83.31;100721.55;1806872;78;27428;-81
2022/10/16 00:45:10;;;;;;;15.60;11.05;;;;;;;15.04;83.17;100716.05;1808100;77;25779;-80
2022/10/16 00:47:48;;;;;;;15.43;10.35;;;;;;;15.05;83.13;100719.07;1806271;78;25947;-83
2022/10/16 00:50:20;;;;;;;15.45;11.28;;;;;;;15.05;82.95;100720.93;1816232;77;25832;-80
2022/10/16 00:52:50;;;;;;;15.85;11.43;;;;;;;15.01;82.89;100717.81;1810441;78;25784;-79
2022/10/16 00:55:16;;;;;;;16.95;10.68;;;;;;;15.01;82.91;100724.55;1817847;77;27631;-81
2022/10/16 00:57:44;;;;;;;15.15;11.53;;;;;;;15.03;82.83;100724.36;1812669;77;25771;-79
2022/10/16 01:00:16;;;;;;;14.43;10.72;;;;;;;15.05;82.85;100727.16;1826642;77;25809;-80
2022/10/16 01:02:42;;;;;;;18.52;11.20;;;;;;;15.07;82.76;100729.64;1833255;77;26341;-80
2022/10/16 01:05:09;;;;;;;15.72;10.80;;;;;;;15.08;82.72;100732.63;1851103;77;26165;-80
2022/10/16 01:08:03;;;;;;;16.10;11.40;;;;;;;15.10;82.64;100726.50;1821500;77;27500;-79
2022/10/16 01:10:50;;;;;;;14.23;11.20;;;;;;;15.09;82.48;100727.55;1822935;77;26449;-80
2022/10/16 01:13:30;;;;;;;19.20;12.37;;;;;;;15.07;82.32;100734.52;1836238;77;25307;-83
2022/10/16 01:16:17;;;;;;;15.63;11.35;;;;;;;15.04;82.33;100744.38;1839278;77;26406;-81
2022/10/16 01:19:04;;;;;;;16.45;10.72;;;;;;;15.05;82.44;100753.30;1815009;77;25848;-82
2022/10/16 01:21:38;;;;;;;17.57;11.85;;;;;;;15.02;82.56;100751.85;1790792;78;27461;-81
2022/10/16 01:24:19;;;;;;;15.78;11.97;;;;;;;15.03;82.61;100754.04;1795812;78;26401;-78
2022/10/16 01:27:05;;;;;;;16.27;12.45;;;;;;;15.02;82.60;100749.16;1776530;79;25833;-80
2022/10/16 01:29:58;;;;;;;17.17;12.40;;;;;;;15.03;82.61;100745.94;1789059;79;26585;-79
2022/10/16 01:32:31;;;;;;;18.07;12.75;;;;;;;15.04;82.64;100745.72;1751811;80;26389;-81
2022/10/16 01:35:23;;;;;;;16.30;11.63;;;;;;;15.04;82.56;100744.89;1748693;79;28219;-81
2022/10/16 01:38:19;;;;;;;20.88;12.37;;;;;;;15.03;82.44;100740.03;1810663;78;26416;-81
2022/10/16 01:40:52;;;;;;;17.37;12.63;;;;;;;15.05;82.45;100742.52;1817285;78;25311;-80
2022/10/16 01:43:30;;;;;;;19.27;13.03;;;;;;;15.05;82.50;100743.34;1820213;77;25806;-81
2022/10/16 01:45:59;;;;;;;16.73;12.70;;;;;;;15.05;82.41;100737.95;1845020;77;25785;-83
2022/10/16 01:48:25;;;;;;;18.70;13.48;;;;;;;15.05;82.24;100734.42;1807943;78;27444;-81
2022/10/16 01:50:57;;;;;;;20.00;11.97;;;;;;;15.04;82.13;100734.94;1808095;77;26451;-81
2022/10/16 01:53:25;;;;;;;20.35;13.22;;;;;;;15.04;82.12;100738.14;1819355;77;25926;-81
2022/10/16 01:55:54;;;;;;;23.83;13.95;;;;;;;15.03;82.06;100731.94;1810161;77;25816;-79
2022/10/16 01:58:25;;;;;;;19.43;13.97;;;;;;;15.04;81.99;100732.23;1829851;77;25962;-79
2022/10/16 02:00:54;;;;;;;20.37;13.43;;;;;;;15.02;82.06;100734.31;1850738;77;27436;-80
2022/10/16 02:03:23;;;;;;;18.32;14.18;;;;;;;15.02;81.86;100735.67;1826646;77;25773;-78
2022/10/16 02:05:53;;;;;;;18.62;13.48;;;;;;;15.03;81.83;100739.20;1816679;77;25723;-81
2022/10/16 02:08:23;;;;;;;22.93;14.25;;;;;;;15.02;81.81;100742.41;1782236;78;26154;-79
2022/10/16 02:10:50;;;;;;;19.95;14.30;;;;;;;15.03;81.75;100737.85;1799004;78;25802;-80
2022/10/16 02:13:22;;;;;;;22.37;14.18;;;;;;;15.03;81.71;100735.98;1770845;79;27453;-78
2022/10/16 02:15:48;;;;;;;20.40;14.05;;;;;;;15.00;81.67;100732.35;1816734;77;26334;-79
2022/10/16 02:18:15;;;;;;;21.25;13.55;;;;;;;14.99;81.71;100740.67;1807936;77;25282;-80
2022/10/16 02:20:57;;;;;;;18.30;13.25;;;;;;;15.00;81.75;100738.27;1814376;77;25769;-81
2022/10/16 02:23:31;;;;;;;21.60;13.85;;;;;;;15.00;81.79;100745.00;1830289;77;25698;-81
2022/10/16 02:26:00;;;;;;;19.40;13.80;;;;;;;14.99;81.78;100750.11;1816318;77;27479;-80
2022/10/16 02:28:32;;;;;;;19.52;13.05;;;;;;;14.97;81.82;100746.80;1813949;77;26021;-80
2022/10/16 02:31:03;;;;;;;20.32;13.53;;;;;;;14.98;81.83;100746.58;1806295;78;25881;-81
2022/10/16 02:33:31;;;;;;;23.35;13.93;;;;;;;14.96;81.78;100739.73;1808708;78;26560;-81
2022/10/16 02:35:58;;;;;;;22.27;14.93;;;;;;;14.96;81.85;100745.13;1822411;77;25933;-83
2022/10/16 02:38:26;;;;;;;19.37;14.03;;;;;;;14.97;81.86;100741.41;1850680;77;27440;-81
2022/10/16 02:40:53;;;;;;;21.27;12.98;;;;;;;14.95;81.81;100745.64;1827810;77;25830;-84
2022/10/16 02:43:19;;;;;;;20.80;14.35;;;;;;;14.94;81.78;100750.74;1817799;78;25879;-79
2022/10/16 02:45:46;;;;;;;19.02;12.85;;;;;;;14.95;81.84;100761.02;1812762;77;26662;-79
2022/10/16 02:48:12;;;;;;;21.00;13.72;;;;;;;14.93;81.85;100756.33;1810380;77;25969;-81
2022/10/16 02:50:38;;;;;;;19.55;13.38;;;;;;;14.93;81.90;100760.37;1808456;78;27412;-80
2022/10/16 02:53:05;;;;;;;23.27;13.62;;;;;;;14.92;81.91;100763.61;1808947;78;26089;-80
2022/10/16 02:55:31;;;;;;;21.35;13.93;;;;;;;14.93;81.94;100768.46;1807609;77;25534;-80
2022/10/16 02:57:57;;;;;;;22.35;14.07;;;;;;;14.93;81.91;100760.37;1808516;78;26397;-81
2022/10/16 03:00:24;;;;;;;24.50;13.38;;;;;;;14.92;81.83;100764.96;1812898;77;26202;-80
2022/10/16 03:02:50;;;;;;;20.55;14.53;;;;;;;14.90;81.81;100762.16;1810899;77;27432;-80
2022/10/16 03:05:17;;;;;;;21.65;13.83;;;;;;;14.89;81.76;100769.41;1817410;77;26451;-80
2022/10/16 03:07:43;;;;;;;22.77;13.85;;;;;;;14.89;81.68;100768.06;1812161;77;25906;-80
2022/10/16 03:10:09;;;;;;;21.12;13.22;;;;;;;14.89;81.64;100767.23;1802467;77;25823;-81
2022/10/16 03:12:36;;;;;;;20.20;13.98;;;;;;;14.86;81.54;100774.41;1808135;78;25908;-81
2022/10/16 03:15:03;;;;;;;20.15;14.10;;;;;;;14.85;81.52;100776.27;1806137;78;27424;-82
2022/10/16 03:17:29;;;;;;;24.07;14.60;;;;;;;14.83;81.29;100783.74;1806461;79;25953;-80
2022/10/16 03:19:55;;;;;;;19.02;14.18;;;;;;;14.82;81.29;100783.96;1829460;77;25305;-80
2022/10/16 03:22:22;;;;;;;23.00;14.70;;;;;;;14.80;81.14;100787.39;1828644;77;25905;-80
2022/10/16 03:24:48;;;;;;;21.73;14.93;;;;;;;14.78;81.00;100790.27;1825961;77;25871;-82
2022/10/16 03:27:14;;;;;;;21.37;14.03;;;;;;;14.76;80.88;100790.16;1813076;77;27398;-80
2022/10/16 03:29:41;;;;;;;21.40;13.68;;;;;;;14.73;80.83;100791.95;1810509;77;25295;-80
2022/10/16 03:32:07;;;;;;;25.10;14.38;;;;;;;14.68;80.70;100790.72;1812556;77;26399;-83
2022/10/16 03:34:33;;;;;;;21.57;15.10;;;;;;;14.65;80.54;100792.47;1807022;77;26371;-82
2022/10/16 03:37:00;;;;;;;19.70;13.45;;;;;;;14.61;80.37;100789.05;1825561;77;26449;-81
2022/10/16 03:39:26;;;;;;;20.97;14.58;;;;;;;14.56;80.23;100790.20;1806816;78;28854;-82
2022/10/16 03:41:53;;;;;;;16.67;13.05;;;;;;;14.52;80.24;100791.66;1808203;78;26383;-81
2022/10/16 03:44:19;;;;;;;20.25;14.25;;;;;;;14.48;80.19;100791.73;1815422;78;25801;-79
2022/10/16 03:46:45;;;;;;;19.48;14.78;;;;;;;14.44;80.07;100795.89;1807246;79;26015;-80
2022/10/16 03:49:12;;;;;;;19.42;13.62;;;;;;;14.39;79.99;100795.16;1803458;78;25317;-80
2022/10/16 03:51:38;;;;;;;19.30;14.23;;;;;;;14.34;79.91;100786.88;1832322;78;27422;-80
2022/10/16 03:54:05;;;;;;;21.50;14.23;;;;;;;14.29;79.85;100788.52;1810355;78;26070;-80
2022/10/16 03:56:31;;;;;;;23.10;15.10;;;;;;;14.24;79.72;100788.30;1814540;78;25720;-80
2022/10/16 03:58:57;;;;;;;21.65;14.33;;;;;;;14.19;79.73;100789.41;1833715;77;26549;-81
2022/10/16 04:01:24;;;;;;;20.82;15.18;;;;;;;14.13;79.78;100792.42;1835923;77;25296;-80
2022/10/16 04:03:50;;;;;;;26.65;16.42;;;;;;;14.09;79.81;100801.95;1839489;77;27438;-79
2022/10/16 04:06:16;;;;;;;24.60;15.50;;;;;;;14.04;79.78;100804.42;1752053;81;25842;-79
2022/10/16 04:08:43;;;;;;;26.12;16.20;;;;;;;14.00;79.80;100810.41;1815841;77;25783;-80
2022/10/16 04:11:10;;;;;;;22.55;15.70;;;;;;;13.97;79.83;100812.16;1816304;77;26617;-81
2022/10/16 04:13:37;;;;;;;22.98;16.45;;;;;;;13.90;79.88;100812.14;1808084;77;25716;-82
2022/10/16 04:16:03;;;;;;;25.85;15.80;;;;;;;13.86;80.08;100814.92;1811115;77;27431;-79
2022/10/16 04:18:30;;;;;;;23.57;15.85;;;;;;;13.82;80.06;100816.37;1843395;77;25494;-80
2022/10/16 04:20:56;;;;;;;25.72;15.08;;;;;;;13.78;79.96;100809.73;1756614;80;26110;-80
2022/10/16 04:23:23;;;;;;;24.95;16.30;;;;;;;13.74;80.04;100812.01;1813268;78;26693;-80
2022/10/16 04:25:49;;;;;;;25.95;16.02;;;;;;;13.70;80.06;100809.41;1817382;77;26419;-82
2022/10/16 04:28:16;;;;;;;21.02;15.63;;;;;;;13.67;80.11;100812.48;1794341;78;27442;-80
2022/10/16 04:30:42;;;;;;;23.02;15.10;;;;;;;13.64;80.20;100819.61;1828745;77;25915;-78
2022/10/16 04:33:09;;;;;;;22.87;14.98;;;;;;;13.61;80.27;100813.81;1805614;77;26027;-84
2022/10/16 04:35:36;;;;;;;24.63;15.38;;;;;;;13.58;80.24;100815.58;1824019;77;25785;-81
2022/10/16 04:38:02;;;;;;;21.55;16.07;;;;;;;13.55;80.33;100816.80;1809768;78;25930;-80
2022/10/16 04:40:28;;;;;;;22.95;15.95;;;;;;;13.54;80.68;100819.16;1806255;77;27409;-82
2022/10/16 04:42:55;;;;;;;20.95;15.83;;;;;;;13.53;80.64;100828.79;1831720;77;25281;-82
2022/10/16 04:45:21;;;;;;;21.62;16.60;;;;;;;13.48;80.76;100837.45;1809447;77;25480;-80
2022/10/16 04:47:48;;;;;;;21.95;16.45;;;;;;;13.46;80.90;100834.14;1809126;77;25847;-79
2022/10/16 04:50:14;;;;;;;23.27;16.67;;;;;;;13.43;80.93;100832.38;1809227;77;26508;-80
2022/10/16 04:52:40;;;;;;;22.52;15.72;;;;;;;13.42;80.97;100836.92;1826524;77;28262;-79
2022/10/16 04:55:07;;;;;;;23.10;15.95;;;;;;;13.41;81.02;100831.20;1825776;77;25927;-79
2022/10/16 04:57:34;;;;;;;21.35;15.13;;;;;;;13.40;80.99;100832.76;1818128;77;25983;-80
2022/10/16 05:00:00;;;;;;;19.82;15.70;;;;;;;13.38;81.13;100832.12;1821955;77;26459;-79
2022/10/16 05:02:26;;;;;;;23.20;16.15;;;;;;;13.38;81.19;100828.09;1824436;77;25875;-79
2022/10/16 05:04:53;;;;;;;23.67;16.23;;;;;;;13.35;81.21;100825.28;1821759;77;27603;-80
2022/10/16 05:07:19;;;;;;;23.60;14.35;;;;;;;13.33;81.31;100826.50;1825750;78;26330;-82
2022/10/16 05:09:45;;;;;;;20.80;15.28;;;;;;;13.31;81.33;100829.91;1829442;77;25851;-82
2022/10/16 05:12:11;;;;;;;22.37;14.33;;;;;;;13.31;81.49;100832.60;1822101;77;25895;-82
2022/10/16 05:14:38;;;;;;;21.85;15.13;;;;;;;13.30;81.59;100829.08;1828306;78;25985;-78
2022/10/16 05:17:04;;;;;;;27.27;15.40;;;;;;;13.30;81.63;100837.68;1822419;77;27591;-80
2022/10/16 05:19:30;;;;;;;20.00;15.48;;;;;;;13.29;81.82;100840.04;1827318;77;25818;-80
2022/10/16 05:21:57;;;;;;;21.05;15.53;;;;;;;13.30;81.94;100840.37;1772780;79;25831;-79
2022/10/16 05:24:23;;;;;;;24.77;15.00;;;;;;;13.30;81.95;100838.48;1830380;77;25806;-80
2022/10/16 05:26:50;;;;;;;24.63;15.83;;;;;;;13.29;81.99;100836.00;1826836;77;25797;-80
2022/10/16 05:29:17;;;;;;;20.25;15.25;;;;;;;13.29;82.12;100834.66;1787795;79;27427;-79
2022/10/16 05:31:43;;;;;;;19.62;14.55;;;;;;;13.28;82.18;100837.05;1813732;77;25993;-79
2022/10/16 05:34:09;;;;;;;20.88;14.98;;;;;;;13.28;82.26;100845.12;1818439;78;25928;-78
2022/10/16 05:36:36;;;;;;;21.05;15.00;;;;;;;13.27;82.31;100842.09;1821902;77;25798;-80
2022/10/16 05:39:03;;;;;;;22.32;15.23;;;;;;;13.26;82.41;100843.15;1818648;77;26500;-79
2022/10/16 05:41:29;;;;;;;21.40;15.45;;;;;;;13.25;82.47;100849.55;1822391;77;27440;-80
2022/10/16 05:43:55;;;;;;;20.90;15.28;;;;;;;13.24;82.59;100847.89;1811452;77;25840;-79
2022/10/16 05:46:22;;;;;;;20.12;15.20;;;;;;;13.23;82.72;100852.44;1811387;77;25773;-80
2022/10/16 05:48:48;;;;;;;21.05;15.15;;;;;;;13.24;83.02;100845.20;1810809;77;25885;-82
2022/10/16 05:51:15;;;;;;;20.48;14.50;;;;;;;13.24;83.07;100851.39;1804708;77;25857;-81
2022/10/16 05:53:42;;;;;;;22.52;15.15;;;;;;;13.25;83.39;100856.27;1808535;77;28273;-78
2022/10/16 05:56:12;;;;;;;25.08;16.17;;;;;;;13.26;83.74;100856.59;1813689;77;26407;-80
2022/10/16 05:58:40;;;;;;;21.27;16.40;;;;;;;13.27;84.19;100864.97;1794635;78;32846;-81
2022/10/16 06:01:11;;;;;;;23.45;16.23;;;;;;;13.29;84.60;100865.09;1821591;77;25803;-81
2022/10/16 06:03:37;;;;;;;21.37;15.63;;;;;;;13.31;84.95;100867.58;1819058;77;25894;-81
2022/10/16 06:06:22;;;;;;;25.60;17.17;;;;;;;13.34;85.50;100869.88;1814466;77;27434;-81
2022/10/16 06:08:49;;;;;;;24.80;16.60;;;;;;;13.37;85.77;100869.47;1813983;77;26394;-83
2022/10/16 06:11:24;;;;;;;24.95;17.05;;;;;;;13.40;86.05;100862.36;1810183;77;25341;-81
2022/10/16 06:13:52;;;;;;;25.82;17.60;;;;;;;13.43;86.30;100858.75;1813296;77;26043;-81
2022/10/16 06:16:19;;;;;;;30.27;18.67;;;;;;;13.47;86.50;100857.85;1823246;77;25927;-80
2022/10/16 06:18:47;;;;;;;26.05;17.25;;;;;;;13.51;86.72;100865.33;1773320;79;27608;-81
2022/10/16 06:21:24;;;;;;;26.23;18.02;;;;;;;13.55;86.95;100858.52;1749365;80;26229;-79
2022/10/16 06:23:51;;;;;;;24.92;16.65;;;;;;;13.59;87.05;100871.05;1751971;80;25935;-80
2022/10/16 06:26:21;;;;;;;22.60;16.02;;;;;;;13.63;87.28;100872.31;1723466;80;26083;-80
2022/10/16 06:28:48;;;;;;;19.27;15.70;;;;;;;13.66;87.43;100866.03;1726267;81;25872;-82
2022/10/16 06:31:16;;;;;;;24.87;15.83;;;;;;;13.70;87.58;100872.67;1819811;77;27433;-80
2022/10/16 06:33:42;;;;;;;23.12;15.72;;;;;;;13.74;87.71;100880.66;1837554;77;26228;-79
2022/10/16 06:36:12;;;;;;;21.50;16.27;;;;;;;13.79;87.82;100878.17;1837862;77;25801;-83
2022/10/16 06:38:40;;;;;;;21.10;14.53;;;;;;;13.83;87.86;100888.05;1811555;77;26428;-83
2022/10/16 06:41:07;;;;;;;21.93;16.25;;;;;;;13.84;87.74;100893.73;1821642;77;25629;-81
2022/10/16 06:43:36;;;;;;;21.82;15.25;;;;;;;13.87;87.85;100897.38;1758411;81;28254;-81
2022/10/16 06:46:07;;;;;;;21.02;15.38;;;;;;;13.89;87.93;100894.81;1762280;80;25901;-80
2022/10/16 06:48:34;;;;;;;20.57;15.03;;;;;;;13.92;87.90;100893.05;1744696;81;25720;-80
2022/10/16 06:51:05;;;;;;;19.57;15.08;;;;;;;13.94;87.99;100896.91;1752817;80;26770;-81
2022/10/16 06:53:37;;;;;;;25.57;15.90;;;;;;;13.97;88.02;100888.41;1819794;77;25899;-80
2022/10/16 06:56:15;;;;;;;21.55;14.93;;;;;;;14.00;88.11;100889.36;1809493;77;28369;-81
2022/10/16 06:58:43;;;;;;;22.25;15.18;;;;;;;14.04;88.14;100887.08;1814362;78;26019;-81
2022/10/16 07:01:11;;;;;;;27.95;15.48;;;;;;;14.09;88.26;100887.31;1816182;77;25813;-82
2022/10/16 07:03:40;;;;;;;26.95;16.15;;;;;;;14.14;88.34;100887.02;1809087;77;25824;-81
2022/10/16 07:06:09;;;;;;;23.35;16.40;;;;;;;14.21;88.52;100887.03;1810657;77;26447;-82
2022/10/16 07:08:38;;;;;;;23.12;15.50;;;;;;;14.27;88.38;100899.17;1818071;77;27587;-83
2022/10/16 07:11:09;;;;;;;21.52;16.75;;;;;;;14.34;88.38;100905.45;1803759;78;25783;-81
2022/10/16 07:13:38;;;;;;;22.65;15.43;;;;;;;14.40;88.30;100929.40;1810591;77;25717;-79
2022/10/16 07:16:12;;;;;;;21.87;15.70;;;;;;;14.46;88.38;100921.33;1808380;77;26541;-80
2022/10/16 07:18:40;;;;;;;22.42;15.80;;;;;;;14.52;88.32;100919.16;1812629;77;25880;-80
2022/10/16 07:21:15;;;;;;;20.82;15.28;;;;;;;14.60;88.42;100927.08;1815784;78;27525;-83
2022/10/16 07:23:42;;;;;;;20.82;14.63;;;;;;;14.69;88.36;100926.37;1816010;77;25286;-80
2022/10/16 07:26:10;;;;;;;20.77;15.38;;;;;;;14.78;88.32;100926.45;1806881;77;25916;-81
2022/10/16 07:28:38;;;;;;;19.35;15.15;;;;;;;14.87;88.31;100924.39;1818911;77;25918;-79
2022/10/16 07:31:07;;;;;;;19.73;15.43;;;;;;;14.93;88.22;100926.25;1786964;78;25951;-81
2022/10/16 07:33:35;;;;;;;20.70;16.27;;;;;;;14.99;87.92;100931.66;1818157;77;27418;-80
2022/10/16 07:36:02;;;;;;;25.45;15.72;;;;;;;15.04;87.81;100926.98;1816297;78;25930;-80
2022/10/16 07:38:28;;;;;;;21.27;15.25;;;;;;;15.09;87.73;100925.86;1823391;77;25850;-82
2022/10/16 07:41:05;;;;;;;21.95;14.78;;;;;;;15.13;87.60;100919.84;1817557;77;25770;-81
2022/10/16 07:43:33;;;;;;;27.45;19.87;;;;;;;15.19;87.69;100933.01;1818716;77;26514;-81
2022/10/16 07:46:00;;;;;;;26.23;16.62;;;;;;;15.24;87.75;100934.06;1763294;79;28419;-81
2022/10/16 07:48:33;;;;;;;24.92;15.48;;;;;;;15.30;87.62;100941.83;1821677;77;25888;-83
2022/10/16 07:51:05;;;;;;;20.17;15.40;;;;;;;15.34;87.59;100947.95;1816041;77;25842;-81
2022/10/16 07:53:33;;;;;;;19.90;14.90;;;;;;;15.40;87.67;100959.25;1807023;77;26268;-81
2022/10/16 07:56:03;;;;;;;17.98;13.32;;;;;;;15.42;87.42;100959.88;1816339;77;25910;-81
2022/10/16 07:58:30;;;;;;;21.85;13.72;;;;;;;15.47;87.30;100961.14;1820101;77;27417;-80
2022/10/16 08:00:58;;;;;;;17.67;13.78;;;;;;;15.49;87.31;100961.25;1810735;77;25876;-81
2022/10/16 08:03:25;;;;;;;17.52;13.88;;;;;;;15.54;87.42;100956.06;1812965;77;25936;-80
2022/10/16 08:05:51;;;;;;;16.50;12.98;;;;;;;15.59;87.33;100958.13;1814837;77;25781;-81
2022/10/16 08:08:18;;;;;;;19.70;14.03;;;;;;;15.63;87.41;100952.08;1808998;77;25810;-83
2022/10/16 08:10:45;;;;;;;21.65;14.00;;;;;;;15.68;87.32;100953.63;1813944;78;28411;-81
2022/10/16 08:13:12;;;;;;;18.25;13.95;;;;;;;15.73;87.23;100961.95;1809171;77;25854;-82
2022/10/16 08:15:38;;;;;;;17.67;12.65;;;;;;;15.78;87.15;100951.86;1813124;77;25787;-80
2022/10/16 08:18:05;;;;;;;19.12;13.25;;;;;;;15.84;87.22;100959.11;1818494;77;25763;-82
2022/10/16 08:20:33;;;;;;;17.82;13.20;;;;;;;15.89;87.29;100956.58;1817389;77;26442;-82
2022/10/16 08:23:00;;;;;;;17.12;12.10;;;;;;;15.95;87.33;100967.37;1807701;77;27403;-80
2022/10/16 08:25:28;;;;;;;17.48;12.82;;;;;;;16.00;86.92;100968.92;1810294;77;25848;-78
2022/10/16 08:27:54;;;;;;;15.38;12.05;;;;;;;16.07;86.92;100962.14;1812844;77;25896;-81
2022/10/16 08:30:23;;;;;;;15.83;11.57;;;;;;;16.13;86.81;100964.83;1824484;77;26618;-79
2022/10/16 08:32:49;;;;;;;15.83;12.80;;;;;;;16.18;86.85;100967.73;1822454;77;25756;-80
2022/10/16 08:35:16;;;;;;;22.17;14.15;;;;;;;16.26;86.67;100961.75;1827942;77;28477;-82
2022/10/16 08:37:43;;;;;;;16.02;11.83;;;;;;;16.32;86.46;100960.88;1825460;77;25797;-80
2022/10/16 08:40:20;;;;;;;18.10;12.35;;;;;;;16.39;86.16;100967.09;1826666;77;26398;-80
2022/10/16 08:43:21;;;;;;;16.35;11.97;;;;;;;16.43;86.11;100979.13;1832737;77;25754;-79
2022/10/16 08:46:23;;;;;;;15.90;12.85;;;;;;;16.47;85.95;100981.20;1818015;77;25835;-79
2022/10/16 08:48:55;;;;;;;15.60;12.05;;;;;;;16.51;85.69;100985.16;1819120;77;27423;-80
2022/10/16 08:51:32;;;;;;;16.40;12.30;;;;;;;16.57;85.71;100982.13;1823927;77;26504;-80
2022/10/16 08:54:06;;;;;;;17.85;12.07;;;;;;;16.63;85.72;100978.55;1814164;77;25874;-82
2022/10/16 08:56:33;;;;;;;15.32;12.28;;;;;;;16.74;85.81;100972.45;1814030;78;25863;-79
2022/10/16 08:59:01;;;;;;;16.60;12.20;;;;;;;16.82;85.78;100973.03;1817705;77;25816;-79
2022/10/16 09:01:39;;;;;;;14.40;11.43;;;;;;;16.90;85.81;100967.34;1820796;77;27453;-80
2022/10/16 09:04:28;;;;;;;19.65;12.65;;;;;;;16.95;85.51;100955.34;1808651;77;25327;-80
2022/10/16 09:07:24;;;;;;;14.45;11.73;;;;;;;17.04;85.48;100965.38;1811471;77;25816;-80
2022/10/16 09:10:11;;;;;;;16.67;11.20;;;;;;;17.11;85.21;100963.98;1805000;77;26640;-81
2022/10/16 09:12:54;;;;;;;13.50;11.28;;;;;;;17.15;85.03;100970.05;1797781;78;25823;-81
2022/10/16 09:15:27;;;;;;;13.78;11.10;;;;;;;17.18;84.69;100964.73;1805747;77;27461;-79
2022/10/16 09:18:21;;;;;;;17.62;12.05;;;;;;;17.21;84.49;100954.83;1811277;77;25876;-82
2022/10/16 09:21:25;;;;;;;17.40;11.75;;;;;;;17.25;84.41;100956.88;1819630;78;26515;-81
2022/10/16 09:23:52;;;;;;;16.23;12.58;;;;;;;17.31;84.42;100961.91;1815253;77;25836;-80
2022/10/16 09:26:21;;;;;;;14.23;11.83;;;;;;;17.35;84.48;100959.90;1743089;80;25982;-80
2022/10/16 09:28:46;;;;;;;17.37;12.30;;;;;;;17.41;84.34;100966.30;1810451;78;28411;-79
2022/10/16 09:31:19;;;;;;;14.25;12.00;;;;;;;17.47;84.14;100961.37;1816912;77;25931;-80
2022/10/16 09:33:53;;;;;;;14.63;12.45;;;;;;;17.53;84.04;100970.82;1807520;78;25268;-81
2022/10/16 09:36:21;;;;;;;15.20;12.73;;;;;;;17.59;83.87;100970.44;1818330;77;25790;-81
2022/10/16 09:38:49;;;;;;;18.17;13.45;;;;;;;17.64;83.58;100978.19;1803976;77;25585;-82
2022/10/16 09:41:20;;;;;;;15.30;12.55;;;;;;;17.66;83.13;100985.56;1759743;80;27479;-81
2022/10/16 09:43:54;;;;;;;19.30;12.13;;;;;;;17.71;83.17;100980.31;1814986;77;25824;-80
2022/10/16 09:46:34;;;;;;;13.93;11.43;;;;;;;17.77;83.00;100972.35;1810886;78;26018;-81
2022/10/16 09:49:05;;;;;;;17.25;13.22;;;;;;;17.84;83.12;100975.80;1807895;77;26701;-80
2022/10/16 09:51:35;;;;;;;16.30;12.10;;;;;;;17.88;82.91;100979.74;1812625;77;26437;-84
2022/10/16 09:54:15;;;;;;;16.17;12.40;;;;;;;17.95;82.83;100973.70;1812564;77;27414;-79
2022/10/16 09:56:42;;;;;;;15.38;11.83;;;;;;;18.01;82.41;100980.92;1810972;78;26447;-80
2022/10/16 09:59:18;;;;;;;19.40;13.03;;;;;;;18.06;82.32;100981.09;1808749;77;25900;-82
2022/10/16 10:01:50;;;;;;;16.40;11.95;;;;;;;18.09;81.95;100981.45;1833084;77;25800;-82
2022/10/16 10:04:19;;;;;;;17.00;12.70;;;;;;;18.13;81.89;100976.42;1817651;77;25996;-81
2022/10/16 10:06:55;;;;;;;18.17;12.65;;;;;;;18.13;81.70;100977.27;1805842;77;28902;-83
2022/10/16 10:09:26;;;;;;;15.15;11.53;;;;;;;18.16;81.62;100965.94;1813387;77;25970;-79
2022/10/16 10:12:04;;;;;;;19.45;11.78;;;;;;;18.19;81.68;100964.66;1818728;77;25971;-80
2022/10/16 10:14:38;;;;;;;14.55;12.05;;;;;;;18.22;81.43;100962.31;1815595;77;26558;-80
2022/10/16 10:17:10;;;;;;;17.77;12.18;;;;;;;18.28;81.79;100956.53;1823696;77;26518;-82
2022/10/16 10:19:56;;;;;;;15.05;12.15;;;;;;;18.32;81.20;100949.59;1809219;77;28356;-80
2022/10/16 10:22:32;;;;;;;17.02;11.80;;;;;;;18.38;81.38;100952.73;1782276;78;25991;-80
2022/10/16 10:25:33;;;;;;;16.57;11.48;;;;;;;18.43;81.29;100948.27;1783758;79;25870;-83
2022/10/16 10:28:23;;;;;;;14.23;11.35;;;;;;;18.50;81.21;100947.41;1811809;78;26325;-80
2022/10/16 10:31:04;;;;;;;15.47;11.03;;;;;;;18.57;80.91;100950.83;1805931;77;26401;-81
2022/10/16 10:33:42;;;;;;;14.45;10.35;;;;;;;18.60;80.46;100962.07;1771371;78;28277;-78
2022/10/16 10:36:29;;;;;;;16.60;11.00;;;;;;;18.64;80.23;100962.42;1816627;77;26429;-81
2022/10/16 10:39:09;;;;;;;14.85;10.75;;;;;;;18.66;79.98;100965.22;1823822;77;25811;-79
2022/10/16 10:41:49;;;;;;;17.52;11.57;;;;;;;18.69;80.17;100962.58;1822233;77;25827;-80
2022/10/16 10:44:39;;;;;;;17.10;11.28;;;;;;;18.72;80.02;100967.52;1810214;77;26054;-80
2022/10/16 10:47:17;;;;;;;13.50;10.67;;;;;;;18.73;79.77;100953.74;1810162;77;27462;-79
2022/10/16 10:50:03;;;;;;;16.02;10.68;;;;;;;18.77;79.64;100950.86;1813641;77;26088;-79
2022/10/16 10:53:05;;;;;;;12.75;10.80;;;;;;;18.80;79.50;100946.83;1812353;77;25727;-79
2022/10/16 10:55:43;;;;;;;12.47;9.53;;;;;;;18.85;79.55;100945.61;1811244;77;25961;-78
2022/10/16 10:58:45;;;;;;;13.62;10.05;;;;;;;18.90;79.39;100947.11;1821116;77;25284;-79
2022/10/16 11:01:28;;;;;;;14.18;10.72;;;;;;;18.95;79.40;100945.34;1821236;77;27688;-79
2022/10/16 11:04:22;;;;;;;12.47;9.48;;;;;;;19.00;79.50;100950.08;1808762;77;25836;-80
2022/10/16 11:07:02;;;;;;;13.05;10.20;;;;;;;19.04;79.27;100959.41;1815976;77;25658;-81
2022/10/16 11:09:36;;;;;;;12.53;9.85;;;;;;;19.06;79.09;100960.00;1816924;77;25765;-79
2022/10/16 11:12:12;;;;;;;12.47;9.53;;;;;;;19.10;79.32;100960.66;1768225;79;25286;-82
2022/10/16 11:14:46;;;;;;;11.45;9.38;;;;;;;19.14;79.14;100953.70;1807695;77;27448;-79
2022/10/16 11:17:27;;;;;;;12.10;9.63;;;;;;;19.17;78.87;100957.31;1764003;77;25890;-78
2022/10/16 11:20:20;;;;;;;12.45;8.65;;;;;;;19.20;78.58;100964.98;1816831;77;25949;-79
2022/10/16 11:22:57;;;;;;;12.00;8.83;;;;;;;19.25;78.59;100963.75;1818103;77;25791;-81
2022/10/16 11:25:30;;;;;;;12.07;9.23;;;;;;;19.31;78.42;100957.91;1808932;77;25693;-78
2022/10/16 11:28:20;;;;;;;12.95;9.98;;;;;;;19.39;78.44;100958.97;1817895;77;27602;-79